^^

Metar de toute la France(point de départ, Chateauroux, classé dans l'ordre alphabétique actualisée toutes les 30 minutes)






LFBA - Agen/, France
Distance de la station: SSO 307km
Mise à jour: 22/08/2014 01:30
partiellement nuageux
partiellement nuageux
 Wind from calm
Vent: Vent calme
Température: 13°C
Point de Rosée: 11°C
Humidité: 88%
Baromètre: 1017 hPa
Nuages: partiellement nuageux
Visibilité: 10 km
2014/08/21 23:30 LFBA 212330Z AUTO 00000KT 9999 NSC 13/11 Q1017
LFLP - Annecy/, France
Distance de la station: ESE 352km
Mise à jour: 22/08/2014 01:30
partiellement nuageux
partiellement nuageux
 Wind from NE
Vent: NE 9 km/h
Température: 12°C
Point de Rosée: 9°C
Humidité: 82%
Baromètre: 1018 hPa
Nuages: partiellement nuageux
Visibilité: 10 km
2014/08/21 23:30 LFLP 212330Z AUTO 05005KT 9999 NSC 12/09 Q1018
 
LFOA - Avord/ , France
Distance de la station: ENE 76km
Mise à jour: 22/08/2014 01:30
partiellement nuageux
partiellement nuageux
 Wind from calm
Vent: Vent calme
Température: 11°C
Point de Rosée: 8°C
Humidité: 82%
Baromètre: 1017 hPa
Nuages: partiellement nuageux
Visibilité: 10 km
2014/08/21 23:30 LFOA 212330Z AUTO 00000KT 9999 NSC 11/08 Q1017
LFSB - Bale/, France
Distance de la station: ENE 449km
Mise à jour: 22/08/2014 01:30
partiellement nuageux
partiellement nuageux
 Wind from calm
Vent: Vent calme
Température: 12°C
Point de Rosée: 11°C
Humidité: 94%
Baromètre: 1017 hPa
Nuages: partiellement nuageux
Visibilité: 10 km
2014/08/21 23:30 LFSB 212330Z AUTO 00000KT 9999 NSC 12/11 Q1017
 
LFOB - Beauvais/, France
Distance de la station: N 296km
Mise à jour: 22/08/2014 01:30
partiellement nuageux
partiellement nuageux
 Wind from ESE
Vent: ESE 4 km/h
Température: 9°C
Point de Rosée: 7°C
Humidité: 87%
Baromètre: 1015 hPa
Nuages: partiellement nuageux
Visibilité: 10 km
2014/08/21 23:30 LFOB 212330Z AUTO 12002KT 9999 NSC 09/07 Q1015
LFBE - Bergerac/, France
Distance de la station: SSO 240km
Mise à jour: 22/08/2014 01:30
partiellement nuageux
partiellement nuageux
 Wind from calm
Vent: Vent calme
Température: 10°C
Point de Rosée: 10°C
Humidité: 100%
Baromètre: 1017 hPa
Nuages: partiellement nuageux
Visibilité: 10 km
2014/08/21 23:30 LFBE 212330Z AUTO 00000KT 9999 NSC 10/10 Q1017
 
LFMU - Beziers/, France
Distance de la station: SSE 411km
Mise à jour: 22/08/2014 01:30
partiellement nuageux
partiellement nuageux
 Wind from calm
Vent: Vent calme
Température: 18°C
Point de Rosée: 11°C
Humidité: 64%
Baromètre: 1016 hPa
Nuages: partiellement nuageux
Visibilité: 10 km
2014/08/21 23:30 LFMU 212330Z AUTO 00000KT 9999 NSC 18/11 Q1016
LFBZ - Biarritz/, France
Distance de la station: SO 449km
Mise à jour: 22/08/2014 01:30
partiellement nuageux
partiellement nuageux
 Wind from SSE
Vent: SSE 6 km/h
Température: 15°C
Point de Rosée: 12°C
Humidité: 82%
Baromètre: 1018 hPa
Nuages: partiellement nuageux
Visibilité: 10 km
2014/08/21 23:30 LFBZ 212330Z AUTO 16003KT 9999 NSC 15/12 Q1018
 
LFBD - Bordeaux/, France
Distance de la station: SO 289km
Mise à jour: 22/08/2014 01:30
partiellement nuageux
partiellement nuageux
 Wind from variable
Vent: variable 4 km/h
Température: 15°C
Point de Rosée: 11°C
Humidité: 77%
Baromètre: 1018 hPa
Nuages: partiellement nuageux
Visibilité: 10 km
2014/08/21 23:30 LFBD 212330Z AUTO VRB02KT 9999 NSC 15/11 Q1018
LFAQ - Bray/, France
Distance de la station: N 358km
Mise à jour: 22/08/2014 01:30
partiellement nuageux
partiellement nuageux
 Wind from SSE
Vent: SSE 9 km/h
Température: 10°C
Wind Chill: 9°C
Point de Rosée: 8°C
Humidité: 88%
Baromètre: 1015 hPa
Nuages: partiellement nuageux
Visibilité: 10 km
2014/08/21 23:30 LFAQ 212330Z AUTO 16005KT 9999 NSC 10/08 Q1015
 
LFRB - Brest/, France
Distance de la station: ONO 492km
Mise à jour: 22/08/2014 01:30
nuageux
nuageux
 Wind from SSO
Vent: SSO 17 km/h
Température: 13°C
Point de Rosée: 11°C
Humidité: 88%
Baromètre: 1016 hPa
Nuages: nuageux
Visibilité: 10 km
Nuages details: partiellement nuageux 914 m
nuageux 1615 m
2014/08/21 23:30 LFRB 212330Z 20009KT 9999 SCT030 BKN053 13/11 Q1016 NOSIG
LFRK - Caen/, France
Distance de la station: NNO 306km
Mise à jour: 22/08/2014 01:30

 Wind from O
Vent: O 9 km/h
Température: 11°C
Point de Rosée: 9°C
Humidité: 88%
Baromètre: 1016 hPa
Visibilité: 10 km
2014/08/21 23:30 LFRK 212330Z AUTO 26005KT 9999 ////// 11/09 Q1016
 
LFMK - Carcassonne/, France
Distance de la station: S 403km
Mise à jour: 22/08/2014 01:30
partiellement nuageux
partiellement nuageux
 Wind from variable
Vent: variable 4 km/h
Température: 15°C
Point de Rosée: 13°C
Humidité: 88%
Baromètre: 1017 hPa
Nuages: partiellement nuageux
Visibilité: 10 km
2014/08/21 23:30 LFMK 212330Z AUTO VRB02KT 9999 NSC 15/13 Q1017
LFMV - Caumont/, France
Distance de la station: SE 410km
Mise à jour: 22/08/2014 01:30
partiellement nuageux
partiellement nuageux
 Wind from calm
Vent: Vent calme
Température: 14°C
Point de Rosée: 12°C
Humidité: 88%
Baromètre: 1016 hPa
Nuages: partiellement nuageux
Visibilité: 10 km
2014/08/21 23:30 LFMV 212330Z AUTO 00000KT 9999 NSC 14/12 Q1016
 
LFBC - Cazaux/, France
Distance de la station: SO 336km
Mise à jour: 22/08/2014 01:30
partiellement nuageux
partiellement nuageux
 Wind from variable
Vent: variable 2 km/h
Température: 12°C
Point de Rosée: 10°C
Humidité: 88%
Baromètre: 1018 hPa
Nuages: partiellement nuageux
Visibilité: 10 km
2014/08/21 23:30 LFBC 212330Z AUTO VRB01KT 9999 NSC 12/10 Q1018
LFPC - Creil/, France
Distance de la station: NNE 278km
Mise à jour: 22/08/2014 01:30
partiellement nuageux
partiellement nuageux
 Wind from calm
Vent: Vent calme
Température: 11°C
Point de Rosée: 8°C
Humidité: 82%
Baromètre: 1015 hPa
Nuages: partiellement nuageux
Visibilité: 10 km
2014/08/21 23:30 LFPC 212330Z AUTO 00000KT 9999 NSC 11/08 Q1015
 
LFLB - Chambery/, France
Distance de la station: ESE 348km
Mise à jour: 22/08/2014 01:30
partiellement nuageux
partiellement nuageux
 Wind from calm
Vent: Vent calme
Température: 10°C
Point de Rosée: 9°C
Humidité: 94%
Baromètre: 1018 hPa
Nuages: partiellement nuageux
Visibilité: 10 km
2014/08/21 23:30 LFLB 212330Z AUTO 00000KT 9999 NSC 10/09 Q1018
LFOK - Chalons/, France
Distance de la station: NE 287km
Mise à jour: 22/08/2014 01:30
partiellement nuageux
partiellement nuageux
 Wind from S
Vent: S 9 km/h
Température: 11°C
Point de Rosée: 8°C
Humidité: 82%
Baromètre: 1016 hPa
Nuages: partiellement nuageux
Visibilité: 10 km
2014/08/21 23:30 LFOK 212330Z AUTO 17005KT 9999 NSC 11/08 Q1016
 
LFOC - Chateaudun/, France
Distance de la station: N 137km
Mise à jour: 22/08/2014 01:30
partiellement nuageux
partiellement nuageux
 Wind from SSO
Vent: SSO 6 km/h
Température: 12°C
Point de Rosée: 9°C
Humidité: 82%
Baromètre: 1016 hPa
Nuages: partiellement nuageux
Visibilité: 10 km
2014/08/21 23:30 LFOC 212330Z AUTO 20003KT 9999 NSC 12/09 Q1016
LFLX - Chateauroux/, France
Distance de la station: NE 4km
Mise à jour: 22/08/2014 01:30
partiellement nuageux
partiellement nuageux
 Wind from SE
Vent: SE 4 km/h
Température: 10°C
Point de Rosée: 8°C
Humidité: 88%
Baromètre: 1017 hPa
Nuages: partiellement nuageux
Visibilité: 10 km
2014/08/21 23:30 LFLX 212330Z AUTO 14002KT 9999 NSC 10/08 Q1017
 
LFPG - Charles De Gaulle/, France
Distance de la station: NNE 252km
Mise à jour: 22/08/2014 01:30
clair
clair
 Wind from SSE
Vent: SSE 9 km/h
Température: 14°C
Point de Rosée: 8°C
Humidité: 67%
Baromètre: 1016 hPa
Récapitulatifs: clair
Visibilité: supérieure à 10 km
2014/08/21 23:30 LFPG 212330Z 16005KT CAVOK 14/08 Q1016 NOSIG
LFRC - Cherbourg/, France
Distance de la station: NO 390km
Mise à jour: 22/08/2014 01:30
Couvert
Couvert
 Wind from S
Vent: S 9 km/h
Température: 12°C
Point de Rosée: 9°C
Humidité: 82%
Baromètre: 1015 hPa
Nuages: Couvert
Visibilité: 10 km
Nuages details: Quelques Nuages 1097 m
Couvert 1951 m
2014/08/21 23:30 LFRC 212330Z AUTO 19005KT 9999 FEW036 OVC064 12/09 Q1015
 
LFLC - Clermont/, France
Distance de la station: SE 163km
Mise à jour: 22/08/2014 01:39
Quelques Nuages
Quelques Nuages
 Wind from calm
Vent: Vent calme
Température: 11°C
Point de Rosée: 8°C
Humidité: 82%
Baromètre: 1017 hPa
Nuages: Quelques Nuages
Visibilité: 10 km
Nuages details: Quelques Nuages 1707 m
2014/08/21 23:39 LFLC 212339Z 00000KT 9999 FEW056 11/08 Q1017 NOSIG
LFBG - Cognac/, France
Distance de la station: SO 200km
Mise à jour: 22/08/2014 01:30
partiellement nuageux
partiellement nuageux
 Wind from variable
Vent: variable 4 km/h
Température: 14°C
Point de Rosée: 10°C
Humidité: 77%
Baromètre: 1018 hPa
Nuages: partiellement nuageux
Visibilité: 10 km
2014/08/21 23:30 LFBG 212330Z AUTO VRB02KT 9999 NSC 14/10 Q1018
 
LFBY - Dax/, France
Distance de la station: SSO 411km
Mise à jour: 22/08/2014 01:00
clair
clair
 Wind from calm
Vent: Vent calme
Température: 15°C
Point de Rosée: 12°C
Humidité: 82%
Baromètre: 1018 hPa
Nuages: clair
Visibilité: 10 km
2014/08/21 23:00 LFBY 212300Z AUTO 00000KT 9999 // NCD 15/12 Q1018
LFSD - Dijon/, France
Distance de la station: ENE 261km
Mise à jour: 22/08/2014 01:30
partiellement nuageux
partiellement nuageux
 Wind from ONO
Vent: ONO 7 km/h
Température: 12°C
Point de Rosée: 8°C
Humidité: 77%
Baromètre: 1017 hPa
Nuages: partiellement nuageux
Visibilité: 10 km
2014/08/21 23:30 LFSD 212330Z AUTO 29004KT 9999 NSC 12/08 Q1017
 
LFRD - Dinard/, France
Distance de la station: NO 342km
Mise à jour: 22/08/2014 01:30
partiellement nuageux
partiellement nuageux
 Wind from SO
Vent: SO 9 km/h
Température: 11°C
Point de Rosée: 8°C
Humidité: 82%
Baromètre: 1016 hPa
Nuages: partiellement nuageux
Visibilité: 10 km
2014/08/21 23:30 LFRD 212330Z AUTO 22005KT 9999 NSC 11/08 Q1016
LFGJ - Dole/, France
Distance de la station: E 286km
Mise à jour: 22/08/2014 01:30
partiellement nuageux
partiellement nuageux
 Wind from E
Vent: E 6 km/h
Température: 11°C
Point de Rosée: 9°C
Humidité: 88%
Baromètre: 1017 hPa
Nuages: partiellement nuageux
Visibilité: 10 km
2014/08/21 23:30 LFGJ 212330Z AUTO 08003KT 9999 NSC 11/09 Q1017
 
LFOE - Evreux/, France
Distance de la station: N 247km
Mise à jour: 22/08/2014 01:30
partiellement nuageux
partiellement nuageux
 Wind from SO
Vent: SO 7 km/h
Température: 11°C
Point de Rosée: 9°C
Humidité: 88%
Baromètre: 1015 hPa
Nuages: partiellement nuageux
Visibilité: 10 km
2014/08/21 23:30 LFOE 212330Z AUTO 22004KT 9999 NSC 11/09 Q1015
LFMT - Frejorgues/, France
Distance de la station: SSE 403km
Mise à jour: 22/08/2014 01:30
partiellement nuageux
partiellement nuageux
 Wind from NNO
Vent: NNO 11 km/h
Température: 19°C
Point de Rosée: 12°C
Humidité: 64%
Baromètre: 1016 hPa
Nuages: partiellement nuageux
Visibilité: 10 km
2014/08/21 23:30 LFMT 212330Z AUTO 33006KT 9999 NSC 19/12 Q1016
 
LFMI - Istres/, France
Distance de la station: SE 446km
Mise à jour: 22/08/2014 01:30
partiellement nuageux
partiellement nuageux
 Wind from ESE
Vent: ESE 4 km/h
Température: 17°C
Point de Rosée: 14°C
Humidité: 83%
Baromètre: 1015 hPa
Nuages: partiellement nuageux
Visibilité: 10 km
2014/08/21 23:30 LFMI 212330Z AUTO 11002KT 9999 NSC 17/14 Q1015
LFLS - Grenoble/, France
Distance de la station: ESE 323km
Mise à jour: 22/08/2014 01:30
partiellement nuageux
partiellement nuageux
 Wind from ESE
Vent: ESE 4 km/h
Température: 10°C
Point de Rosée: 8°C
Humidité: 88%
Baromètre: 1017 hPa
Nuages: partiellement nuageux
Visibilité: 10 km
2014/08/21 23:30 LFLS 212330Z AUTO 12002KT 9999 NSC 10/08 Q1017
 
LFBH - La Rochelle/, France
Distance de la station: OSO 229km
Mise à jour: 22/08/2014 01:30
partiellement nuageux
partiellement nuageux
 Wind from N
Vent: N 11 km/h
Température: 15°C
Point de Rosée: 11°C
Humidité: 77%
Baromètre: 1018 hPa
Nuages: partiellement nuageux
Visibilité: 10 km
2014/08/21 23:30 LFBH 212330Z AUTO 36006KT 9999 NSC 15/11 Q1018
LFRI - La Roche Sur Yon/, France
Distance de la station: O 233km
Mise à jour: 22/08/2014 01:30
partiellement nuageux
partiellement nuageux
 Wind from ONO
Vent: ONO 4 km/h
Température: 10°C
Point de Rosée: 10°C
Humidité: 100%
Baromètre: 1018 hPa
Nuages: partiellement nuageux
Visibilité: 10 km
2014/08/21 23:30 LFRI 212330Z AUTO 30002KT 9999 NSC 10/10 Q1018
 
LFOH - Le Havre/, France
Distance de la station: NNO 323km
Mise à jour: 22/08/2014 01:30
partiellement nuageux
partiellement nuageux
 Wind from O
Vent: O 24 km/h
Température: 15°C
Point de Rosée: 8°C
Humidité: 63%
Baromètre: 1015 hPa
Nuages: partiellement nuageux
Visibilité: 10 km
2014/08/21 23:30 LFOH 212330Z AUTO 26013KT 9999 NSC 15/08 Q1015
LFRM - Le Mans/, France
Distance de la station: NO 166km
Mise à jour: 22/08/2014 01:30
partiellement nuageux
partiellement nuageux
 Wind from S
Vent: S 4 km/h
Température: 11°C
Point de Rosée: 10°C
Humidité: 94%
Baromètre: 1016 hPa
Nuages: partiellement nuageux
Visibilité: 10 km
2014/08/21 23:30 LFRM 212330Z AUTO 17002KT 9999 NSC 11/10 Q1016
 
LFRJ - Landivisiau/, France
Distance de la station: ONO 476km
Mise à jour: 22/08/2014 01:30
Couvert
Couvert
 Wind from OSO
Vent: OSO 19 km/h
Température: 14°C
Point de Rosée: 10°C
Humidité: 77%
Baromètre: 1016 hPa
Nuages: Couvert
Visibilité: 10 km
Nuages details: partiellement nuageux 1158 m
Couvert 1951 m
2014/08/21 23:30 LFRJ 212330Z AUTO 25010KT 9999 SCT038 OVC064 14/10 Q1016
LFRO - Lannion/, France
Distance de la station: ONO 441km
Mise à jour: 22/08/2014 01:30
partiellement nuageux
partiellement nuageux
 Wind from SO
Vent: SO 13 km/h
Température: 13°C
Point de Rosée: 9°C
Humidité: 77%
Baromètre: 1016 hPa
Nuages: partiellement nuageux
Visibilité: 10 km
2014/08/21 23:30 LFRO 212330Z AUTO 22007KT 9999 NSC 13/09 Q1016
 
LFRL - Lanveoc/, France
Distance de la station: ONO 485km
Mise à jour: 22/08/2014 01:30
Couvert
Couvert
 Wind from OSO
Vent: OSO 13 km/h
Température: 13°C
Point de Rosée: 11°C
Humidité: 88%
Baromètre: 1017 hPa
Nuages: Couvert
Visibilité: 10 km
Nuages details: Quelques Nuages 213 m
nuageux 1097 m
Couvert 1341 m
2014/08/21 23:30 LFRL 212330Z AUTO 24007KT 220V280 9999 FEW007 BKN036 OVC044 13/11 Q1017
LFBL - Limoges/, France
Distance de la station: SSO 113km
Mise à jour: 22/08/2014 01:30
partiellement nuageux
partiellement nuageux
 Wind from NNE
Vent: NNE 7 km/h
Température: 12°C
Point de Rosée: 7°C
Humidité: 72%
Baromètre: 1018 hPa
Nuages: partiellement nuageux
Visibilité: 10 km
2014/08/21 23:30 LFBL 212330Z AUTO 03004KT 9999 NSC 12/07 Q1018
 
LFQQ - Lille/, France
Distance de la station: NNE 430km
Mise à jour: 22/08/2014 01:30
clair
clair
 Wind from S
Vent: S 9 km/h
Température: 11°C
Point de Rosée: 8°C
Humidité: 82%
Baromètre: 1014 hPa
Récapitulatifs: clair
Visibilité: supérieure à 10 km
2014/08/21 23:30 LFQQ 212330Z 18005KT CAVOK 11/08 Q1014 NOSIG
LFRH - Lorient/, France
Distance de la station: ONO 401km
Mise à jour: 22/08/2014 01:30
partiellement nuageux
partiellement nuageux
 Wind from O
Vent: O 4 km/h
Température: 10°C
Point de Rosée: 8°C
Humidité: 88%
Baromètre: 1017 hPa
Nuages: partiellement nuageux
Visibilité: 10 km
2014/08/21 23:30 LFRH 212330Z AUTO 27002KT 9999 NSC 10/08 Q1017
 
LFLY - Lyon/, France
Distance de la station: ESE 279km
Mise à jour: 22/08/2014 01:30
partiellement nuageux
partiellement nuageux
 Wind from S
Vent: S 7 km/h
Température: 13°C
Point de Rosée: 8°C
Humidité: 72%
Baromètre: 1017 hPa
Nuages: partiellement nuageux
Visibilité: 10 km
2014/08/21 23:30 LFLY 212330Z AUTO 17004KT 9999 NSC 13/08 Q1017
LFLL - Lyon/Satolas, France
Distance de la station: ESE 287km
Mise à jour: 22/08/2014 01:30
clair
clair
 Wind from variable
Vent: variable 2 km/h
Température: 14°C
Point de Rosée: 8°C
Humidité: 67%
Baromètre: 1017 hPa
Récapitulatifs: clair
Visibilité: supérieure à 10 km
2014/08/21 23:30 LFLL 212330Z VRB01KT CAVOK 14/08 Q1017 NOSIG
 
LFSX - Luxeuil/, France
Distance de la station: ENE 366km
Mise à jour: 22/08/2014 01:30
partiellement nuageux
partiellement nuageux
 Wind from calm
Vent: Vent calme
Température: 9°C
Point de Rosée: 7°C
Humidité: 87%
Baromètre: 1017 hPa
Nuages: partiellement nuageux
Visibilité: 10 km
2014/08/21 23:30 LFSX 212330Z AUTO 00000KT 9999 NSC 09/07 Q1017
LFJR - Marce/, France
Distance de la station: NO 134km
Mise à jour: 22/08/2014 01:30
partiellement nuageux
partiellement nuageux
 Wind from O
Vent: O 4 km/h
Température: 9°C
Point de Rosée: 8°C
Humidité: 94%
Baromètre: 1017 hPa
Nuages: partiellement nuageux
Visibilité: 10 km
2014/08/21 23:30 LFJR 212330Z AUTO 26002KT 9999 NSC 09/08 Q1017
 
LFML - Marseille/, France
Distance de la station: SE 466km
Mise à jour: 22/08/2014 01:30
partiellement nuageux
partiellement nuageux
 Wind from SE
Vent: SE 9 km/h
Température: 17°C
Point de Rosée: 13°C
Humidité: 77%
Baromètre: 1016 hPa
Nuages: partiellement nuageux
Visibilité: 10 km
2014/08/21 23:30 LFML 212330Z AUTO 13005KT 9999 NSC 17/13 Q1016
LFPM - Melun/, France
Distance de la station: NNE 213km
Mise à jour: 22/08/2014 01:30
partiellement nuageux
partiellement nuageux
 Wind from SSE
Vent: SSE 4 km/h
Température: 12°C
Point de Rosée: 8°C
Humidité: 77%
Baromètre: 1016 hPa
Nuages: partiellement nuageux
Visibilité: 10 km
2014/08/21 23:30 LFPM 212330Z AUTO 15002KT 9999 NSC 12/08 Q1016
 
LFJL - Metz-Nancy-Lorra/, France
Distance de la station: NE 416km
Mise à jour: 22/08/2014 01:30
partiellement nuageux
partiellement nuageux
 Wind from S
Vent: S 13 km/h
Température: 10°C
Wind Chill: 8°C
Point de Rosée: 5°C
Humidité: 71%
Baromètre: 1017 hPa
Nuages: partiellement nuageux
Visibilité: 10 km
2014/08/21 23:30 LFJL 212330Z AUTO 17007KT 9999 NSC 10/05 Q1017
LFBM - Mont-De-Marsan/, France
Distance de la station: SSO 365km
Mise à jour: 22/08/2014 01:30
partiellement nuageux
partiellement nuageux
 Wind from calm
Vent: Vent calme
Température: 13°C
Point de Rosée: 12°C
Humidité: 94%
Baromètre: 1018 hPa
Nuages: partiellement nuageux
Visibilité: 10 km
2014/08/21 23:30 LFBM 212330Z AUTO 00000KT 9999 NSC 13/12 Q1018
 
LFSO - Nancy/, France
Distance de la station: ENE 375km
Mise à jour: 22/08/2014 01:30
partiellement nuageux
partiellement nuageux
 Wind from SSE
Vent: SSE 9 km/h
Température: 11°C
Point de Rosée: 6°C
Humidité: 72%
Baromètre: 1017 hPa
Nuages: partiellement nuageux
Visibilité: 10 km
2014/08/21 23:30 LFSO 212330Z AUTO 15005KT 9999 NSC 11/06 Q1017
LFRS - Nantes/, France
Distance de la station: O 252km
Mise à jour: 22/08/2014 01:30
clair
clair
 Wind from S
Vent: S 6 km/h
Température: 10°C
Point de Rosée: 9°C
Humidité: 94%
Baromètre: 1017 hPa
Récapitulatifs: clair
Visibilité: supérieure à 10 km
2014/08/21 23:30 LFRS 212330Z 18003KT CAVOK 10/09 Q1017 NOSIG
 
LFTW - Nimes/, France
Distance de la station: SE 402km
Mise à jour: 22/08/2014 01:30
partiellement nuageux
partiellement nuageux
 Wind from NE
Vent: NE 4 km/h
Température: 17°C
Point de Rosée: 11°C
Humidité: 68%
Baromètre: 1016 hPa
Nuages: partiellement nuageux
Visibilité: 10 km
2014/08/21 23:30 LFTW 212330Z AUTO 04002KT 9999 NSC 17/11 Q1016
LFMO - Orange/, France
Distance de la station: SE 387km
Mise à jour: 22/08/2014 01:30
partiellement nuageux
partiellement nuageux
 Wind from variable
Vent: variable 4 km/h
Température: 14°C
Point de Rosée: 9°C
Humidité: 72%
Baromètre: 1016 hPa
Nuages: partiellement nuageux
Visibilité: 10 km
2014/08/21 23:30 LFMO 212330Z AUTO VRB02KT 9999 NSC 14/09 Q1016
 
LFOJ - Orleans/, France
Distance de la station: N 128km
Mise à jour: 22/08/2014 01:30
partiellement nuageux
partiellement nuageux
 Wind from S
Vent: S 9 km/h
Température: 14°C
Point de Rosée: 8°C
Humidité: 67%
Baromètre: 1016 hPa
Nuages: partiellement nuageux
Visibilité: 10 km
2014/08/21 23:30 LFOJ 212330Z AUTO 18005KT 9999 NSC 14/08 Q1016
LFPB - Paris/, France
Distance de la station: NNE 246km
Mise à jour: 22/08/2014 01:30
partiellement nuageux
partiellement nuageux
 Wind from E
Vent: E 4 km/h
Température: 13°C
Point de Rosée: 9°C
Humidité: 77%
Baromètre: 1015 hPa
Nuages: partiellement nuageux
Visibilité: 10 km
2014/08/21 23:30 LFPB 212330Z AUTO 10002KT 9999 NSC 13/09 Q1015
 
LFPO - Paris/Orly/, France
Distance de la station: NNE 218km
Mise à jour: 22/08/2014 01:30
clair
clair
 Wind from S
Vent: S 9 km/h
Température: 14°C
Point de Rosée: 9°C
Humidité: 72%
Baromètre: 1016 hPa
Récapitulatifs: clair
Visibilité: supérieure à 10 km
2014/08/21 23:30 LFPO 212330Z 19005KT CAVOK 14/09 Q1016 NOSIG
LFMP - Perpignan/, France
Distance de la station: SSE 465km
Mise à jour: 22/08/2014 01:30
Couvert
Couvert
 Wind from variable
Vent: variable 6 km/h
Température: 21°C
Point de Rosée: 13°C
Humidité: 60%
Baromètre: 1016 hPa
Nuages: Couvert
Visibilité: 10 km
Nuages details: Couvert 1768 m
2014/08/21 23:30 LFMP 212330Z AUTO VRB03KT 9999 OVC058 21/13 Q1016
 
LFBI - Poitiers/, France
Distance de la station: OSO 108km
Mise à jour: 22/08/2014 01:30
partiellement nuageux
partiellement nuageux
 Wind from ONO
Vent: ONO 6 km/h
Température: 12°C
Point de Rosée: 9°C
Humidité: 82%
Baromètre: 1017 hPa
Nuages: partiellement nuageux
Visibilité: 10 km
2014/08/21 23:30 LFBI 212330Z AUTO 30003KT 9999 NSC 12/09 Q1017
LFRQ - Quimper/, France
Distance de la station: ONO 458km
Mise à jour: 22/08/2014 01:30
partiellement nuageux
partiellement nuageux
 Wind from OSO
Vent: OSO 4 km/h
Température: 13°C
Point de Rosée: 11°C
Humidité: 88%
Baromètre: 1017 hPa
Nuages: partiellement nuageux
Visibilité: 10 km
2014/08/21 23:30 LFRQ 212330Z AUTO 25002KT 9999 NSC 13/11 Q1017
 
LFRN - Rennes/, France
Distance de la station: ONO 291km
Mise à jour: 22/08/2014 01:30
nuageux
nuageux
 Wind from calm
Vent: Vent calme
Température: 11°C
Point de Rosée: 10°C
Humidité: 94%
Baromètre: 1017 hPa
Nuages: nuageux
Visibilité: 10 km
Nuages details: nuageux 1280 m
2014/08/21 23:30 LFRN 212330Z AUTO 00000KT 9999 BKN042 11/10 Q1017
LFCR - Rodez/, France
Distance de la station: SSE 277km
Mise à jour: 22/08/2014 01:30
partiellement nuageux
partiellement nuageux
 Wind from S
Vent: S 4 km/h
Température: 10°C
Point de Rosée: 8°C
Humidité: 88%
Baromètre: 1018 hPa
Nuages: partiellement nuageux
Visibilité: 10 km
2014/08/21 23:30 LFCR 212330Z AUTO 19002KT 9999 NSC 10/08 Q1018
 
LFYR - Romorantin/, France
Distance de la station: N 56km
Mise à jour: 22/08/2014 01:30
Brouillard ou brume, partiellement nuageux
Brouillard ou brume, partiellement nuageux
 Wind from calm
Vent: Vent calme
Température: 7°C
Point de Rosée: 6°C
Humidité: 93%
Baromètre: 1017 hPa
Récapitulatifs: Brouillard ou brume
Nuages: partiellement nuageux
Visibilité: 1 km
2014/08/21 23:30 LFYR 212330Z AUTO 00000KT 0800 FG NSC 07/06 Q1017
LFOP - Rouen/, France
Distance de la station: N 286km
Mise à jour: 22/08/2014 01:30
partiellement nuageux
partiellement nuageux
 Wind from SSE
Vent: SSE 4 km/h
Température: 10°C
Point de Rosée: 8°C
Humidité: 88%
Baromètre: 1015 hPa
Nuages: partiellement nuageux
Visibilité: 10 km
2014/08/21 23:30 LFOP 212330Z AUTO 16002KT 9999 NSC 10/08 Q1015
 
LFMY - Salon/, France
Distance de la station: SE 446km
Mise à jour: 22/08/2014 01:30
partiellement nuageux
partiellement nuageux
 Wind from NE
Vent: NE 4 km/h
Température: 14°C
Point de Rosée: 12°C
Humidité: 88%
Baromètre: 1016 hPa
Nuages: partiellement nuageux
Visibilité: 10 km
2014/08/21 23:30 LFMY 212330Z AUTO 05002KT 9999 NSC 14/12 Q1016
LFST - Strasbourg/, France
Distance de la station: ENE 483km
Mise à jour: 22/08/2014 01:30
partiellement nuageux
partiellement nuageux
 Wind from variable
Vent: variable 4 km/h
Température: 10°C
Point de Rosée: 8°C
Humidité: 88%
Baromètre: 1017 hPa
Nuages: partiellement nuageux
Visibilité: 10 km
2014/08/21 23:30 LFST 212330Z AUTO VRB02KT 9999 NSC 10/08 Q1017
 
LFRT - Saint-Brieuc/, France
Distance de la station: ONO 388km
Mise à jour: 21/08/2014 22:00
Pas à jour
partiellement nuageux
partiellement nuageux
 Wind from O
Vent: O 6 km/h
Température: 12°C
Point de Rosée: 7°C
Humidité: 72%
Baromètre: 1017 hPa
Nuages: partiellement nuageux
Visibilité: 10 km
2014/08/21 20:00 LFRT 212000Z AUTO 26003KT 9999 NSC 12/07 Q1017
LFSI - St. Dizier/, France
Distance de la station: NE 313km
Mise à jour: 22/08/2014 01:30
partiellement nuageux
partiellement nuageux
 Wind from E
Vent: E 6 km/h
Température: 9°C
Point de Rosée: 8°C
Humidité: 94%
Baromètre: 1017 hPa
Nuages: partiellement nuageux
Visibilité: 10 km
2014/08/21 23:30 LFSI 212330Z AUTO 08003KT 9999 NSC 09/08 Q1017
 
LFMH - St Etienne/, France
Distance de la station: SE 247km
Mise à jour: 22/08/2014 01:30
partiellement nuageux
partiellement nuageux
 Wind from calm
Vent: Vent calme
Température: 11°C
Point de Rosée: 9°C
Humidité: 88%
Baromètre: 1018 hPa
Nuages: partiellement nuageux
Visibilité: 10 km
2014/08/21 23:30 LFMH 212330Z AUTO 00000KT 9999 NSC 11/09 Q1018
LFRG - St Gatien/, France
Distance de la station: NNO 305km
Mise à jour: 22/08/2014 01:30
Couvert
Couvert
 Wind from O
Vent: O 11 km/h
Température: 13°C
Point de Rosée: 10°C
Humidité: 82%
Baromètre: 1016 hPa
Nuages: Couvert
Visibilité: 10 km
Nuages details: Couvert 1463 m
2014/08/21 23:30 LFRG 212330Z AUTO 26006KT 9999 OVC048 13/10 Q1016
 
LFRZ - St. Nazaire/, France
Distance de la station: ONO 297km
Mise à jour: 22/08/2014 01:30
partiellement nuageux
partiellement nuageux
 Wind from ONO
Vent: ONO 9 km/h
Température: 13°C
Point de Rosée: 9°C
Humidité: 77%
Baromètre: 1017 hPa
Nuages: partiellement nuageux
Visibilité: 10 km
2014/08/21 23:30 LFRZ 212330Z AUTO 29005KT 9999 NSC 13/09 Q1017
LFLN - Saint Yan/, France
Distance de la station: ESE 184km
Mise à jour: 22/08/2014 01:30
partiellement nuageux
partiellement nuageux
 Wind from calm
Vent: Vent calme
Température: 13°C
Point de Rosée: 11°C
Humidité: 88%
Baromètre: 1017 hPa
Nuages: partiellement nuageux
Visibilité: 10 km
2014/08/21 23:30 LFLN 212330Z AUTO 00000KT 9999 NSC 13/11 Q1017
 
LFBT - Tarbes/, France
Distance de la station: SSO 427km
Mise à jour: 22/08/2014 01:30
nuageux
nuageux
 Wind from SSO
Vent: SSO 6 km/h
Température: 13°C
Point de Rosée: 12°C
Humidité: 94%
Baromètre: 1018 hPa
Nuages: nuageux
Visibilité: 10 km
Nuages details: Quelques Nuages 2438 m
nuageux 3353 m
2014/08/21 23:30 LFBT 212330Z AUTO 20003KT 9999 FEW080 BKN110 13/12 Q1018
LFSL - Toul/, France
Distance de la station: NE 356km
Mise à jour: 22/08/2014 01:30
partiellement nuageux
partiellement nuageux
 Wind from calm
Vent: Vent calme
Température: 9°C
Point de Rosée: 7°C
Humidité: 87%
Baromètre: 1018 hPa
Nuages: partiellement nuageux
Visibilité: 10 km
2014/08/21 23:30 LFSL 212330Z AUTO 00000KT 9999 NSC 09/07 Q1018
 
LFBO - Toulouse/, France
Distance de la station: S 357km
Mise à jour: 22/08/2014 01:30
partiellement nuageux
partiellement nuageux
 Wind from NO
Vent: NO 7 km/h
Température: 17°C
Point de Rosée: 12°C
Humidité: 73%
Baromètre: 1017 hPa
Nuages: partiellement nuageux
Visibilité: 10 km
2014/08/21 23:30 LFBO 212330Z AUTO 32004KT 9999 NSC 17/12 Q1017
LFOT - Tours/, France
Distance de la station: NO 100km
Mise à jour: 22/08/2014 01:30
clair
clair
 Wind from calm
Vent: Vent calme
Température: 14°C
Point de Rosée: 8°C
Humidité: 67%
Baromètre: 1017 hPa
Récapitulatifs: clair
Visibilité: supérieure à 10 km
2014/08/21 23:30 LFOT 212330Z 00000KT CAVOK 14/08 Q1017
 
LFPN - Toussus Le Noble/, France
Distance de la station: N 217km
Mise à jour: 22/08/2014 01:30

 Wind from variable
Vent: variable 0 km/h
Température: 11°C
Point de Rosée: 9°C
Humidité: 88%
Baromètre: 1016 hPa
Visibilité: 10 km
2014/08/21 23:30 LFPN 212330Z AUTO /////KT 9999 ////// 11/09 Q1016
LFPV - Villacoublay/, France
Distance de la station: N 220km
Mise à jour: 22/08/2014 01:30
partiellement nuageux
partiellement nuageux
 Wind from S
Vent: S 6 km/h
Température: 14°C
Point de Rosée: 7°C
Humidité: 63%
Baromètre: 1016 hPa
Nuages: partiellement nuageux
Visibilité: 10 km
2014/08/21 23:30 LFPV 212330Z AUTO 18003KT 9999 NSC 14/07 Q1016